createdAt,value
2022-08-30T00:01:31.733Z,100.00
2022-08-30T00:04:00.706Z,100.00
2022-08-30T00:06:30.615Z,100.00
2022-08-30T00:08:59.772Z,100.00
2022-08-30T00:11:29.366Z,100.00
2022-08-30T00:13:58.058Z,100.00
2022-08-30T00:16:26.895Z,100.00
2022-08-30T00:18:57.724Z,100.00
2022-08-30T00:21:27.068Z,100.00
2022-08-30T00:23:55.020Z,100.00
2022-08-30T00:26:22.804Z,100.00
2022-08-30T00:28:50.558Z,100.00
2022-08-30T00:31:18.461Z,100.00
2022-08-30T00:33:48.165Z,100.00
2022-08-30T00:36:17.650Z,100.00
2022-08-30T00:38:45.345Z,100.00
2022-08-30T00:41:13.083Z,100.00
2022-08-30T00:43:40.859Z,100.00
2022-08-30T00:46:10.331Z,100.00
2022-08-30T00:48:41.673Z,100.00
2022-08-30T00:51:12.077Z,100.00
2022-08-30T00:53:45.658Z,100.00
2022-08-30T00:56:14.422Z,100.00
2022-08-30T00:58:46.471Z,100.00
2022-08-30T01:01:14.921Z,100.00
2022-08-30T01:03:44.357Z,100.00
2022-08-30T01:06:12.717Z,100.00
2022-08-30T01:08:41.847Z,100.00
2022-08-30T01:11:12.003Z,100.00
2022-08-30T01:13:40.685Z,100.00
2022-08-30T01:16:09.448Z,100.00
2022-08-30T01:18:38.326Z,100.00
2022-08-30T01:21:16.911Z,100.00
2022-08-30T01:23:48.239Z,100.00
2022-08-30T01:26:17.570Z,100.00
2022-08-30T01:28:54.677Z,100.00
2022-08-30T01:31:22.649Z,100.00
2022-08-30T01:33:51.009Z,100.00
2022-08-30T01:36:22.230Z,100.00
2022-08-30T01:38:54.266Z,100.00
2022-08-30T01:41:24.392Z,100.00
2022-08-30T01:43:54.189Z,100.00
2022-08-30T01:46:24.310Z,100.00
2022-08-30T01:48:54.265Z,100.00
2022-08-30T01:51:24.183Z,100.00
2022-08-30T01:53:54.038Z,100.00
2022-08-30T01:56:21.929Z,100.00
2022-08-30T01:58:50.884Z,100.00
2022-08-30T02:01:21.642Z,100.00
2022-08-30T02:03:50.000Z,100.00
2022-08-30T02:06:20.215Z,100.00
2022-08-30T02:08:48.634Z,100.00
2022-08-30T02:11:18.020Z,100.00
2022-08-30T02:13:47.143Z,100.00
2022-08-30T02:16:17.417Z,100.00
2022-08-30T02:18:45.648Z,100.00
2022-08-30T02:21:14.528Z,100.00
2022-08-30T02:23:43.121Z,100.00
2022-08-30T02:26:12.844Z,100.00
2022-08-30T02:28:42.841Z,100.00
2022-08-30T02:31:19.557Z,100.00
2022-08-30T02:33:50.879Z,100.00
2022-08-30T02:36:20.647Z,100.00
2022-08-30T02:38:48.372Z,100.00
2022-08-30T02:41:16.134Z,100.00
2022-08-30T02:43:45.269Z,100.00
2022-08-30T02:46:13.193Z,100.00
2022-08-30T02:48:41.084Z,100.00
2022-08-30T02:51:11.726Z,100.00
2022-08-30T02:53:40.127Z,100.00
2022-08-30T02:56:08.880Z,100.00
2022-08-30T02:58:37.615Z,100.00
2022-08-30T03:01:07.122Z,100.00
2022-08-30T03:03:35.228Z,100.00
2022-08-30T03:06:03.538Z,100.00
2022-08-30T03:08:31.536Z,100.00
2022-08-30T03:10:59.788Z,100.00
2022-08-30T03:13:27.676Z,100.00
2022-08-30T03:15:55.431Z,100.00
2022-08-30T03:18:25.448Z,100.00
2022-08-30T03:20:54.056Z,100.00
2022-08-30T03:23:22.286Z,100.00
2022-08-30T03:25:50.079Z,100.00
2022-08-30T03:28:18.741Z,100.00
2022-08-30T03:30:47.718Z,100.00
2022-08-30T03:33:15.706Z,100.00
2022-08-30T03:35:45.170Z,100.00
2022-08-30T03:38:12.996Z,100.00
2022-08-30T03:40:41.769Z,100.00
2022-08-30T03:43:09.879Z,100.00
2022-08-30T03:45:37.812Z,100.00
2022-08-30T03:48:05.878Z,100.00
2022-08-30T03:50:35.284Z,100.00
2022-08-30T03:53:04.513Z,100.00
2022-08-30T03:55:32.598Z,100.00
2022-08-30T03:58:00.287Z,100.00
2022-08-30T04:00:28.145Z,100.00
2022-08-30T04:02:55.830Z,100.00
2022-08-30T04:05:23.485Z,100.00
2022-08-30T04:07:51.904Z,100.00
2022-08-30T04:10:21.983Z,100.00
2022-08-30T04:12:50.223Z,100.00
2022-08-30T04:15:19.703Z,100.00
2022-08-30T04:17:48.315Z,100.00
2022-08-30T04:20:16.681Z,100.00
2022-08-30T04:22:44.382Z,100.00
2022-08-30T04:25:15.865Z,100.00
2022-08-30T04:27:45.888Z,100.00
2022-08-30T04:30:15.309Z,100.00
2022-08-30T04:32:43.962Z,100.00
2022-08-30T04:35:12.775Z,100.00
2022-08-30T04:37:40.487Z,100.00
2022-08-30T04:40:09.964Z,100.00
2022-08-30T04:42:38.258Z,100.00
2022-08-30T04:45:11.299Z,100.00
2022-08-30T04:47:39.809Z,100.00
2022-08-30T04:50:10.581Z,100.00
2022-08-30T04:52:38.546Z,100.00
2022-08-30T04:55:07.577Z,100.00
2022-08-30T04:57:35.709Z,100.00
2022-08-30T05:00:05.076Z,100.00
2022-08-30T05:02:34.188Z,100.00
2022-08-30T05:05:19.828Z,100.00
2022-08-30T05:07:47.760Z,100.00
2022-08-30T05:10:15.514Z,100.00
2022-08-30T05:12:43.875Z,100.00
2022-08-30T05:15:13.493Z,100.00
2022-08-30T05:17:42.726Z,100.00
2022-08-30T05:20:12.954Z,100.00
2022-08-30T05:22:42.219Z,100.00
2022-08-30T05:25:10.306Z,100.00
2022-08-30T05:27:42.490Z,100.00
2022-08-30T05:30:11.994Z,100.00
2022-08-30T05:32:39.699Z,100.00
2022-08-30T05:35:10.109Z,100.00
2022-08-30T05:37:38.494Z,100.00
2022-08-30T05:40:11.003Z,100.00
2022-08-30T05:42:41.357Z,100.00
2022-08-30T05:45:10.672Z,100.00
2022-08-30T05:47:39.099Z,100.00
2022-08-30T05:50:10.124Z,100.00
2022-08-30T05:52:38.638Z,100.00
2022-08-30T05:55:08.955Z,100.00
2022-08-30T05:57:38.476Z,100.00
2022-08-30T06:00:11.026Z,100.00
2022-08-30T06:02:42.057Z,100.00
2022-08-30T06:05:14.349Z,100.00
2022-08-30T06:07:43.350Z,100.00
2022-08-30T06:10:12.279Z,100.00
2022-08-30T06:12:40.026Z,100.00
2022-08-30T06:15:09.009Z,100.00
2022-08-30T06:17:36.670Z,100.00
2022-08-30T06:20:05.216Z,100.00
2022-08-30T06:22:34.392Z,100.00
2022-08-30T06:25:02.107Z,100.00
2022-08-30T06:27:31.405Z,100.00
2022-08-30T06:29:59.085Z,100.00
2022-08-30T06:32:26.772Z,100.00
2022-08-30T06:34:54.455Z,100.00
2022-08-30T06:37:29.466Z,100.00
2022-08-30T06:40:00.250Z,100.00
2022-08-30T06:42:31.892Z,100.00
2022-08-30T06:45:00.033Z,100.00
2022-08-30T06:47:29.132Z,100.00
2022-08-30T06:49:59.102Z,100.00
2022-08-30T06:52:27.192Z,100.00
2022-08-30T06:54:59.180Z,100.00
2022-08-30T06:57:27.457Z,100.00
2022-08-30T06:59:57.308Z,100.00
2022-08-30T07:02:25.990Z,100.00
2022-08-30T07:04:53.758Z,100.00
2022-08-30T07:07:21.708Z,100.00
2022-08-30T07:09:49.453Z,100.00
2022-08-30T07:12:18.589Z,100.00
2022-08-30T07:14:46.376Z,100.00
2022-08-30T07:17:34.683Z,100.00
2022-08-30T07:20:03.563Z,100.00
2022-08-30T07:22:31.619Z,100.00
2022-08-30T07:24:59.317Z,100.00
2022-08-30T07:27:28.444Z,100.00
2022-08-30T07:29:58.428Z,100.00
2022-08-30T07:32:26.379Z,100.00
2022-08-30T07:34:56.389Z,100.00
2022-08-30T07:37:24.131Z,100.00
2022-08-30T07:39:52.101Z,100.00
2022-08-30T07:42:20.134Z,100.00
2022-08-30T07:44:50.490Z,100.00
2022-08-30T07:47:20.803Z,100.00
2022-08-30T07:49:48.600Z,100.00
2022-08-30T07:52:16.333Z,100.00
2022-08-30T07:54:44.021Z,100.00
2022-08-30T07:57:12.417Z,100.00
2022-08-30T07:59:45.958Z,100.00
2022-08-30T08:02:15.126Z,100.00
2022-08-30T08:04:45.317Z,100.00
2022-08-30T08:07:13.069Z,100.00
2022-08-30T08:09:40.917Z,100.00
2022-08-30T08:12:09.336Z,100.00
2022-08-30T08:14:37.444Z,100.00
2022-08-30T08:17:05.617Z,100.00
2022-08-30T08:19:34.770Z,100.00
2022-08-30T08:22:20.685Z,100.00
2022-08-30T08:24:49.274Z,100.00
2022-08-30T08:27:17.639Z,100.00
2022-08-30T08:29:45.430Z,100.00
2022-08-30T08:32:13.123Z,100.00
2022-08-30T08:34:42.334Z,100.00
2022-08-30T08:37:10.006Z,100.00
2022-08-30T08:39:37.784Z,100.00
2022-08-30T08:42:14.814Z,100.00
2022-08-30T08:44:54.783Z,100.00
2022-08-30T08:47:28.521Z,100.00
2022-08-30T08:50:04.052Z,100.00
2022-08-30T08:53:01.202Z,100.00
2022-08-30T08:55:30.249Z,100.00
2022-08-30T08:57:58.533Z,100.00
2022-08-30T09:00:26.919Z,100.00
2022-08-30T09:02:58.886Z,100.00
2022-08-30T09:05:32.408Z,100.00
2022-08-30T09:08:05.540Z,100.00
2022-08-30T09:10:49.931Z,100.00
2022-08-30T09:13:19.031Z,100.00
2022-08-30T09:15:51.099Z,100.00
2022-08-30T09:18:45.643Z,100.00
2022-08-30T09:21:15.758Z,100.00
2022-08-30T09:23:50.682Z,100.00
2022-08-30T09:26:30.868Z,100.00
2022-08-30T09:28:59.972Z,100.00
2022-08-30T09:31:30.862Z,100.00
2022-08-30T09:34:03.253Z,100.00
2022-08-30T09:36:35.532Z,98.36
2022-08-30T09:39:07.218Z,95.78
2022-08-30T09:41:42.491Z,97.88
2022-08-30T09:44:15.170Z,100.00
2022-08-30T09:46:49.705Z,98.57
2022-08-30T09:49:34.689Z,99.93
2022-08-30T09:52:17.924Z,97.86
2022-08-30T09:55:01.334Z,90.51
2022-08-30T09:57:44.934Z,90.93
2022-08-30T10:00:18.005Z,91.38
2022-08-30T10:02:58.277Z,93.43
2022-08-30T10:05:30.878Z,92.61
2022-08-30T10:08:12.576Z,90.11
2022-08-30T10:10:49.681Z,90.31
2022-08-30T10:13:39.192Z,89.04
2022-08-30T10:16:15.914Z,89.26
2022-08-30T10:18:52.952Z,88.41
2022-08-30T10:21:28.195Z,81.49
2022-08-30T10:24:02.017Z,86.88
2022-08-30T10:26:34.011Z,83.80
2022-08-30T10:29:07.743Z,84.24
2022-08-30T10:31:43.539Z,76.91
2022-08-30T10:34:17.437Z,83.24
2022-08-30T10:36:58.323Z,78.87
2022-08-30T10:39:32.249Z,77.43
2022-08-30T10:42:06.491Z,77.56
2022-08-30T10:44:41.202Z,77.83
2022-08-30T10:47:23.360Z,79.25
2022-08-30T10:49:56.727Z,75.29
2022-08-30T10:52:34.142Z,76.26
2022-08-30T10:55:08.506Z,78.77
2022-08-30T10:57:38.485Z,78.33
2022-08-30T11:00:17.386Z,68.23
2022-08-30T11:03:24.524Z,68.74
2022-08-30T11:06:09.810Z,66.07
2022-08-30T11:08:57.816Z,62.36
2022-08-30T11:11:40.764Z,65.61
2022-08-30T11:14:12.180Z,72.51
2022-08-30T11:16:43.221Z,66.05
2022-08-30T11:19:18.954Z,63.19
2022-08-30T11:21:49.645Z,62.63
2022-08-30T11:24:21.818Z,59.92
2022-08-30T11:27:11.153Z,60.42
2022-08-30T11:29:43.938Z,58.76
2022-08-30T11:32:25.430Z,63.28
2022-08-30T11:34:59.535Z,58.41
2022-08-30T11:37:46.649Z,64.41
2022-08-30T11:40:49.131Z,54.62
2022-08-30T11:43:55.517Z,56.71
2022-08-30T11:46:38.937Z,62.75
2022-08-30T11:49:46.285Z,65.09
2022-08-30T11:52:33.072Z,59.04
2022-08-30T11:55:19.108Z,61.22
2022-08-30T11:57:53.799Z,63.14
2022-08-30T12:00:34.316Z,63.13
2022-08-30T12:03:05.246Z,59.89
2022-08-30T12:05:57.368Z,62.85
2022-08-30T12:08:48.120Z,62.99
2022-08-30T12:12:03.582Z,65.23
2022-08-30T12:14:48.693Z,62.24
2022-08-30T12:17:41.144Z,62.48
2022-08-30T12:20:18.404Z,65.31
2022-08-30T12:22:46.422Z,65.70
2022-08-30T12:25:21.455Z,66.15
2022-08-30T12:27:49.669Z,66.50
2022-08-30T12:30:27.280Z,69.59
2022-08-30T12:32:58.639Z,65.85
2022-08-30T12:35:29.057Z,67.36
2022-08-30T12:38:00.530Z,66.40
2022-08-30T12:40:31.024Z,68.12
2022-08-30T12:43:01.661Z,67.52
2022-08-30T12:45:33.481Z,69.22
2022-08-30T12:48:08.668Z,68.22
2022-08-30T12:50:44.531Z,66.18
2022-08-30T12:53:15.035Z,66.88
2022-08-30T12:55:52.940Z,68.42
2022-08-30T12:58:36.070Z,68.65
2022-08-30T13:01:25.349Z,69.77
2022-08-30T13:04:03.734Z,69.64
2022-08-30T13:06:43.737Z,67.70
2022-08-30T13:09:23.904Z,65.92
2022-08-30T13:11:52.342Z,63.77
2022-08-30T13:14:36.649Z,66.64
2022-08-30T13:17:10.157Z,66.98
2022-08-30T13:19:41.648Z,69.22
2022-08-30T13:22:25.875Z,70.23
2022-08-30T13:24:55.495Z,69.94
2022-08-30T13:27:23.688Z,65.69
2022-08-30T13:29:51.818Z,66.20
2022-08-30T13:32:20.437Z,66.07
2022-08-30T13:34:49.725Z,64.32
2022-08-30T13:40:10.793Z,64.08
2022-08-30T13:42:40.400Z,66.78
2022-08-30T13:45:40.951Z,62.62
2022-08-30T13:47:56.683Z,62.91
2022-08-30T13:50:25.688Z,63.60
2022-08-30T13:52:55.198Z,62.69
2022-08-30T13:55:22.910Z,63.47
2022-08-30T13:57:55.201Z,64.46
2022-08-30T14:00:25.625Z,68.81
2022-08-30T14:02:56.144Z,64.50
2022-08-30T14:06:04.653Z,64.19
2022-08-30T14:11:11.299Z,62.85
2022-08-30T14:16:31.847Z,62.43
2022-08-30T14:19:01.117Z,63.26
2022-08-30T14:21:30.469Z,64.46
2022-08-30T14:23:59.744Z,61.20
2022-08-30T14:26:33.262Z,62.04
2022-08-30T14:29:02.089Z,63.21
2022-08-30T14:31:32.926Z,60.79
2022-08-30T14:34:01.768Z,61.21
2022-08-30T14:36:33.164Z,60.86
2022-08-30T14:39:01.114Z,58.63
2022-08-30T14:41:28.843Z,62.12
2022-08-30T14:43:56.895Z,58.30
2022-08-30T14:46:26.727Z,59.89
2022-08-30T14:48:55.325Z,59.34
2022-08-30T14:51:24.434Z,60.73
2022-08-30T14:53:54.715Z,59.62
2022-08-30T14:56:23.981Z,60.04
2022-08-30T14:59:00.149Z,61.96
2022-08-30T15:01:29.236Z,61.59
2022-08-30T15:03:57.775Z,62.87
2022-08-30T15:06:26.613Z,63.46
2022-08-30T15:08:56.245Z,63.22
2022-08-30T15:11:26.281Z,61.49
2022-08-30T15:13:54.849Z,62.46
2022-08-30T15:16:25.050Z,61.20
2022-08-30T15:18:53.416Z,61.37
2022-08-30T15:21:26.313Z,61.41
2022-08-30T15:23:55.633Z,59.80
2022-08-30T15:26:23.278Z,59.59
2022-08-30T15:28:52.296Z,61.03
2022-08-30T15:31:21.647Z,61.39
2022-08-30T15:33:50.598Z,59.71
2022-08-30T15:36:18.416Z,62.98
2022-08-30T15:38:46.167Z,62.32
2022-08-30T15:41:16.167Z,60.86
2022-08-30T15:43:43.815Z,62.08
2022-08-30T15:46:19.198Z,64.41
2022-08-30T15:48:47.809Z,61.11
2022-08-30T15:51:17.470Z,60.96
2022-08-30T15:53:45.903Z,59.75
2022-08-30T15:56:16.479Z,56.87
2022-08-30T15:58:44.958Z,55.82
2022-08-30T16:01:14.719Z,60.12
2022-08-30T16:06:15.348Z,60.97
2022-08-30T16:08:44.475Z,60.08
2022-08-30T16:11:18.727Z,61.12
2022-08-30T16:13:50.575Z,62.37
2022-08-30T16:16:20.683Z,62.99
2022-08-30T16:18:54.123Z,59.96
2022-08-30T16:21:24.506Z,61.13
2022-08-30T16:23:54.640Z,61.32
2022-08-30T16:26:24.752Z,60.51
2022-08-30T16:28:53.173Z,60.65
2022-08-30T16:31:22.802Z,61.79
2022-08-30T16:33:52.834Z,59.53
2022-08-30T16:36:21.840Z,59.95
2022-08-30T16:38:50.493Z,61.72
2022-08-30T16:41:24.253Z,60.35
2022-08-30T16:43:53.255Z,60.72
2022-08-30T16:46:23.447Z,60.72
2022-08-30T16:48:57.127Z,60.26
2022-08-30T16:51:27.290Z,61.08
2022-08-30T16:53:56.425Z,61.32
2022-08-30T16:56:27.730Z,61.65
2022-08-30T16:59:01.767Z,62.77
2022-08-30T17:01:32.066Z,64.53
2022-08-30T17:04:00.494Z,64.10
2022-08-30T17:06:28.700Z,63.79
2022-08-30T17:08:57.021Z,64.47
2022-08-30T17:11:26.606Z,65.05
2022-08-30T17:13:54.876Z,64.44
2022-08-30T17:16:28.027Z,64.92
2022-08-30T17:18:59.887Z,64.59
2022-08-30T17:21:29.416Z,64.55
2022-08-30T17:24:01.709Z,64.18
2022-08-30T17:26:32.767Z,65.42
2022-08-30T17:29:01.615Z,66.05
2022-08-30T17:31:30.672Z,66.70
2022-08-30T17:34:03.509Z,68.37
2022-08-30T17:36:32.436Z,68.86
2022-08-30T17:39:00.152Z,70.55
2022-08-30T17:41:28.438Z,71.10
2022-08-30T17:43:57.458Z,71.45
2022-08-30T17:46:25.381Z,73.19
2022-08-30T17:48:56.521Z,73.56
2022-08-30T17:51:29.273Z,76.86
2022-08-30T17:53:57.043Z,78.34
2022-08-30T17:56:30.418Z,79.55
2022-08-30T17:59:04.888Z,83.53
2022-08-30T18:01:32.835Z,82.95
2022-08-30T18:04:02.012Z,82.54
2022-08-30T18:06:34.075Z,82.50
2022-08-30T18:09:02.019Z,86.77
2022-08-30T18:11:29.775Z,88.60
2022-08-30T18:13:57.443Z,87.85
2022-08-30T18:16:27.020Z,89.16
2022-08-30T18:18:57.241Z,88.81
2022-08-30T18:21:28.443Z,93.78
2022-08-30T18:23:56.646Z,90.72
2022-08-30T18:26:24.986Z,93.02
2022-08-30T18:28:53.038Z,95.94
2022-08-30T18:31:20.959Z,94.23
2022-08-30T18:33:49.955Z,95.47
2022-08-30T18:36:17.862Z,95.60
2022-08-30T18:38:45.666Z,94.81
2022-08-30T18:41:15.219Z,95.83
2022-08-30T18:43:43.370Z,98.27
2022-08-30T18:46:15.178Z,97.09
2022-08-30T18:48:46.154Z,100.00
2022-08-30T18:51:18.254Z,99.75
2022-08-30T18:53:47.171Z,100.00
2022-08-30T18:56:16.554Z,100.00
2022-08-30T18:58:44.834Z,100.00
2022-08-30T19:01:12.989Z,100.00
2022-08-30T19:03:41.936Z,100.00
2022-08-30T19:06:12.278Z,100.00
2022-08-30T19:08:42.029Z,100.00
2022-08-30T19:11:14.531Z,100.00
2022-08-30T19:13:42.616Z,100.00
2022-08-30T19:16:12.036Z,100.00
2022-08-30T19:18:40.918Z,100.00
2022-08-30T19:21:13.460Z,100.00
2022-08-30T19:23:42.976Z,100.00
2022-08-30T19:26:10.788Z,100.00
2022-08-30T19:28:38.898Z,100.00
2022-08-30T19:31:07.218Z,100.00
2022-08-30T19:33:35.972Z,100.00
2022-08-30T19:36:06.618Z,100.00
2022-08-30T19:38:37.847Z,100.00
2022-08-30T19:41:07.664Z,100.00
2022-08-30T19:43:35.999Z,100.00
2022-08-30T19:46:04.185Z,100.00
2022-08-30T19:48:34.262Z,100.00
2022-08-30T19:51:07.920Z,100.00
2022-08-30T19:53:35.768Z,100.00
2022-08-30T19:56:04.099Z,100.00
2022-08-30T19:58:33.428Z,100.00
2022-08-30T20:01:10.609Z,100.00
2022-08-30T20:03:48.162Z,100.00
2022-08-30T20:06:21.058Z,100.00
2022-08-30T20:08:49.086Z,100.00
2022-08-30T20:11:19.988Z,100.00
2022-08-30T20:13:49.654Z,100.00
2022-08-30T20:16:18.300Z,100.00
2022-08-30T20:18:48.827Z,100.00
2022-08-30T20:21:17.340Z,100.00
2022-08-30T20:23:45.197Z,100.00
2022-08-30T20:26:14.007Z,100.00
2022-08-30T20:28:43.302Z,100.00
2022-08-30T20:31:13.045Z,100.00
2022-08-30T20:33:41.361Z,100.00
2022-08-30T20:36:11.355Z,100.00
2022-08-30T20:38:39.660Z,100.00
2022-08-30T20:41:11.150Z,100.00
2022-08-30T20:43:39.862Z,100.00
2022-08-30T20:46:10.308Z,100.00
2022-08-30T20:48:40.123Z,100.00
2022-08-30T20:51:09.550Z,100.00
2022-08-30T20:53:37.295Z,100.00
2022-08-30T20:56:05.837Z,100.00
2022-08-30T20:58:33.493Z,100.00
2022-08-30T21:01:01.484Z,100.00
2022-08-30T21:03:29.798Z,100.00
2022-08-30T21:06:02.043Z,100.00
2022-08-30T21:08:29.899Z,100.00
2022-08-30T21:10:58.128Z,100.00
2022-08-30T21:13:27.620Z,100.00
2022-08-30T21:16:00.256Z,100.00
2022-08-30T21:18:32.902Z,100.00
2022-08-30T21:21:10.174Z,100.00
2022-08-30T21:23:38.178Z,100.00
2022-08-30T21:26:06.978Z,100.00
2022-08-30T21:28:34.768Z,100.00
2022-08-30T21:31:08.141Z,100.00
2022-08-30T21:33:36.133Z,100.00
2022-08-30T21:36:23.734Z,100.00
2022-08-30T21:38:52.826Z,100.00
2022-08-30T21:41:21.979Z,100.00
2022-08-30T21:43:50.110Z,100.00
2022-08-30T21:46:18.044Z,100.00
2022-08-30T21:48:46.519Z,100.00
2022-08-30T21:51:15.523Z,100.00
2022-08-30T21:53:43.206Z,100.00
2022-08-30T21:56:13.259Z,100.00
2022-08-30T21:58:45.060Z,100.00
2022-08-30T22:01:17.399Z,100.00
2022-08-30T22:03:45.757Z,100.00
2022-08-30T22:06:16.187Z,100.00
2022-08-30T22:08:46.121Z,100.00
2022-08-30T22:11:16.416Z,100.00
2022-08-30T22:13:46.430Z,100.00
2022-08-30T22:16:16.444Z,100.00
2022-08-30T22:18:44.464Z,100.00
2022-08-30T22:21:15.150Z,100.00
2022-08-30T22:23:44.999Z,100.00
2022-08-30T22:26:15.224Z,100.00
2022-08-30T22:28:42.962Z,100.00
2022-08-30T22:31:13.300Z,100.00
2022-08-30T22:33:41.733Z,100.00
2022-08-30T22:36:12.529Z,100.00
2022-08-30T22:38:40.888Z,100.00
2022-08-30T22:41:12.356Z,100.00
2022-08-30T22:43:40.367Z,100.00
2022-08-30T22:46:08.768Z,100.00
2022-08-30T22:48:36.692Z,100.00
2022-08-30T22:51:04.457Z,100.00
2022-08-30T22:53:32.249Z,100.00
2022-08-30T22:56:00.487Z,100.00
2022-08-30T22:58:30.680Z,100.00
2022-08-30T23:00:58.379Z,100.00
2022-08-30T23:03:28.530Z,100.00
2022-08-30T23:05:56.406Z,100.00
2022-08-30T23:08:24.114Z,100.00
2022-08-30T23:10:51.765Z,100.00
2022-08-30T23:13:19.618Z,100.00
2022-08-30T23:15:48.776Z,100.00
2022-08-30T23:18:16.434Z,100.00
2022-08-30T23:20:45.178Z,100.00
2022-08-30T23:23:30.331Z,100.00
2022-08-30T23:26:18.071Z,100.00
2022-08-30T23:29:03.269Z,100.00
2022-08-30T23:31:49.865Z,100.00
2022-08-30T23:34:35.044Z,100.00
2022-08-30T23:37:20.126Z,100.00
2022-08-30T23:40:05.432Z,100.00
2022-08-30T23:42:50.689Z,100.00
2022-08-30T23:45:36.143Z,100.00
2022-08-30T23:48:22.919Z,100.00
2022-08-30T23:51:08.109Z,100.00
2022-08-30T23:53:53.505Z,100.00
2022-08-30T23:56:38.741Z,100.00
2022-08-30T23:59:24.044Z,100.00
